Time;durP1;ratioP1;P1;durP2;ratioP2;P2;SDS_P1;SDS_P2;PMS_P1;PMS_P2;Temp;Humidity;BMP_temperature;BMP_pressure;BME280_temperature;BME280_humidity;BME280_pressure;Samples;Min_cycle;Max_cycle;Signal;HPM_P1;HPM_P2
2021/05/31 00:00:54;;;;;;;7.30;6.70;;;11.60;1.00;;;;;;5098883;28;20666;-67
2021/05/31 00:03:20;;;;;;;7.17;6.53;;;11.60;1.00;;;;;;5088055;28;20203;-68
2021/05/31 00:05:45;;;;;;;7.23;6.60;;;11.60;1.00;;;;;;5109985;28;20239;-68
2021/05/31 00:08:11;;;;;;;7.47;6.77;;;11.50;1.00;;;;;;5111950;28;20202;-68
2021/05/31 00:10:36;;;;;;;7.10;6.40;;;11.50;1.00;;;;;;5107637;28;20189;-68
2021/05/31 00:13:02;;;;;;;6.97;6.30;;;11.50;1.00;;;;;;5109156;28;20219;-68
2021/05/31 00:15:29;;;;;;;7.93;6.30;;;12.50;1.00;;;;;;5105674;28;20185;-68
2021/05/31 00:17:55;;;;;;;8.13;7.43;;;11.30;1.00;;;;;;5109697;28;20226;-68
2021/05/31 00:20:21;;;;;;;7.73;6.27;;;11.30;1.00;;;;;;5109492;28;20470;-68
2021/05/31 00:22:47;;;;;;;8.27;7.47;;;11.40;1.00;;;;;;5092309;28;20224;-68
2021/05/31 00:25:13;;;;;;;7.93;7.03;;;14.70;1.00;;;;;;5102339;28;20425;-68
2021/05/31 00:27:39;;;;;;;7.10;6.50;;;11.20;1.00;;;;;;5110077;28;20217;-65
2021/05/31 00:30:06;;;;;;;6.70;6.00;;;11.10;1.00;;;;;;5109941;28;20620;-67
2021/05/31 00:32:32;;;;;;;8.30;7.40;;;11.10;1.00;;;;;;5110090;28;20205;-66
2021/05/31 00:34:57;;;;;;;6.87;6.20;;;11.00;1.00;;;;;;5109449;28;20523;-68
2021/05/31 00:37:23;;;;;;;7.83;6.50;;;11.00;1.00;;;;;;5104948;28;20320;-68
2021/05/31 00:39:49;;;;;;;8.03;7.23;;;11.00;1.00;;;;;;5109760;28;20736;-68
2021/05/31 00:42:14;;;;;;;7.17;6.43;;;11.00;1.00;;;;;;5107871;28;20601;-67
2021/05/31 00:44:41;;;;;;;7.20;6.60;;;11.00;1.00;;;;;;5111096;28;20438;-68
2021/05/31 00:47:07;;;;;;;6.27;5.70;;;10.90;1.00;;;;;;5109989;28;20267;-67
2021/05/31 00:49:37;;;;;;;6.50;6.00;;;10.80;1.00;;;;;;5111137;28;21002;-66
2021/05/31 00:52:05;;;;;;;6.90;5.83;;;10.60;1.00;;;;;;5091617;28;20201;-66
2021/05/31 00:54:31;;;;;;;6.50;6.00;;;10.30;1.00;;;;;;5109426;28;20930;-67
2021/05/31 00:56:57;;;;;;;9.07;6.27;;;10.20;1.00;;;;;;5110778;28;20560;-66
2021/05/31 00:59:22;;;;;;;6.97;6.37;;;10.10;1.00;;;;;;5101561;28;20289;-66
2021/05/31 01:01:49;;;;;;;8.00;7.20;;;10.20;1.00;;;;;;5109561;28;20645;-68
2021/05/31 01:04:14;;;;;;;10.00;6.87;;;10.30;1.00;;;;;;5110748;28;20755;-67
2021/05/31 01:06:48;;;;;;;7.97;7.27;;;10.20;1.00;;;;;;5110183;28;20526;-68
2021/05/31 01:09:24;;;;;;;7.83;7.13;;;10.30;1.00;;;;;;5108909;28;20177;-67
2021/05/31 01:12:07;;;;;;;10.80;7.97;;;10.40;1.00;;;;;;5109674;28;20437;-66
2021/05/31 01:14:46;;;;;;;13.23;6.40;;;10.50;1.00;;;;;;5110259;28;20441;-68
2021/05/31 01:17:21;;;;;;;7.50;6.80;;;10.60;1.00;;;;;;5109445;28;20441;-66
2021/05/31 01:19:53;;;;;;;7.70;7.00;;;10.50;1.00;;;;;;5110880;28;20459;-68
2021/05/31 01:22:21;;;;;;;6.97;6.27;;;10.50;1.00;;;;;;5109475;28;20445;-67
2021/05/31 01:24:50;;;;;;;6.70;6.10;;;10.50;1.00;;;;;;5101032;28;20451;-66
2021/05/31 01:27:25;;;;;;;6.90;6.30;;;10.50;1.00;;;;;;5106488;28;20440;-68
2021/05/31 01:30:05;;;;;;;6.47;5.87;;;10.60;1.00;;;;;;5110502;28;20789;-67
2021/05/31 01:32:35;;;;;;;7.30;6.60;;;10.50;1.00;;;;;;5108566;28;20459;-68
2021/05/31 01:35:05;;;;;;;7.17;6.50;;;10.50;1.00;;;;;;5101291;28;20451;-69
2021/05/31 01:37:32;;;;;;;8.10;6.83;;;10.40;1.00;;;;;;5109624;28;20462;-69
2021/05/31 01:40:04;;;;;;;7.50;6.80;;;10.50;1.00;;;;;;5108998;28;20564;-68
2021/05/31 01:42:30;;;;;;;7.30;6.53;;;10.40;1.00;;;;;;5108555;28;20437;-68
2021/05/31 01:44:57;;;;;;;7.67;6.87;;;10.40;1.00;;;;;;5107160;28;20472;-69
2021/05/31 01:47:24;;;;;;;7.60;6.90;;;10.30;1.00;;;;;;5109038;28;20443;-69
2021/05/31 01:49:50;;;;;;;7.03;6.43;;;10.30;1.00;;;;;;5110072;28;20446;-66
2021/05/31 01:52:17;;;;;;;7.73;6.93;;;10.20;1.00;;;;;;5109990;28;20484;-66
2021/05/31 01:54:43;;;;;;;6.57;6.00;;;10.20;1.00;;;;;;5107164;28;20445;-67
2021/05/31 01:57:09;;;;;;;6.80;6.10;;;10.10;1.00;;;;;;5088287;28;20793;-66
2021/05/31 01:59:35;;;;;;;7.97;7.23;;;10.20;1.00;;;;;;5109774;28;20470;-66
2021/05/31 02:02:02;;;;;;;8.00;7.30;;;10.10;1.00;;;;;;5105059;28;20444;-67
2021/05/31 02:04:28;;;;;;;6.33;5.73;;;10.10;1.00;;;;;;5082061;28;20450;-67
2021/05/31 02:06:54;;;;;;;7.83;6.77;;;10.10;1.00;;;;;;5098282;28;20452;-67
2021/05/31 02:09:21;;;;;;;8.60;7.07;;;10.00;1.00;;;;;;5110080;28;20264;-67
2021/05/31 02:11:58;;;;;;;7.43;6.70;;;10.00;1.00;;;;;;5102224;28;20500;-67
2021/05/31 02:14:30;;;;;;;6.87;6.23;;;10.00;1.00;;;;;;5111114;28;20469;-67
2021/05/31 02:17:03;;;;;;;7.47;6.67;;;10.00;1.00;;;;;;5106266;28;20785;-67
2021/05/31 02:19:30;;;;;;;6.97;6.37;;;9.90;1.00;;;;;;5091541;28;20480;-68
2021/05/31 02:21:56;;;;;;;7.83;7.03;;;;;;;;;;5093797;28;20445;-69
2021/05/31 02:24:23;;;;;;;8.27;6.40;;;9.80;1.00;;;;;;5111432;28;20454;-67
2021/05/31 02:26:49;;;;;;;8.43;6.97;;;9.80;1.00;;;;;;5113036;28;20448;-68
2021/05/31 02:29:15;;;;;;;6.20;5.70;;;9.80;1.00;;;;;;5103151;28;20864;-68
2021/05/31 02:31:42;;;;;;;8.37;7.53;;;9.80;1.00;;;;;;5107790;28;20528;-68
2021/05/31 02:34:09;;;;;;;7.67;6.77;;;9.80;1.00;;;;;;5113363;28;20444;-66
2021/05/31 02:36:35;;;;;;;7.47;6.77;;;9.80;1.00;;;;;;5111437;28;20471;-67
2021/05/31 02:39:01;;;;;;;7.67;6.93;;;9.70;1.00;;;;;;5113329;28;20523;-66
2021/05/31 02:41:26;;;;;;;7.50;6.80;;;9.70;1.00;;;;;;5111120;28;20583;-67
2021/05/31 02:43:53;;;;;;;7.20;6.43;;;9.70;1.00;;;;;;5110555;28;20472;-68
2021/05/31 02:46:19;;;;;;;6.90;6.30;;;9.70;1.00;;;;;;5113453;28;20448;-67
2021/05/31 02:48:45;;;;;;;7.20;6.50;;;9.70;1.00;;;;;;5097340;28;20214;-67
2021/05/31 02:51:10;;;;;;;8.30;7.40;;;9.60;1.00;;;;;;5111292;28;20484;-67
2021/05/31 02:53:36;;;;;;;7.23;6.63;;;9.70;1.00;;;;;;5113304;28;20753;-66
2021/05/31 02:56:02;;;;;;;9.53;7.23;;;9.60;1.00;;;;;;5113050;28;20696;-68
2021/05/31 02:58:28;;;;;;;10.03;8.97;;;9.60;1.00;;;;;;5110126;28;20197;-66
2021/05/31 03:00:54;;;;;;;8.80;8.00;;;9.70;1.00;;;;;;5111753;28;20464;-68
2021/05/31 03:03:20;;;;;;;10.33;8.63;;;9.60;1.00;;;;;;5111862;28;20444;-67
2021/05/31 03:05:45;;;;;;;13.83;11.60;;;9.70;1.00;;;;;;5110900;28;20179;-67
2021/05/31 03:08:11;;;;;;;14.60;13.00;;;9.60;1.00;;;;;;5111156;28;20481;-67
2021/05/31 03:10:37;;;;;;;15.77;13.83;;;9.60;1.00;;;;;;5111852;28;20180;-68
2021/05/31 03:13:03;;;;;;;15.23;13.70;;;11.10;1.00;;;;;;5106455;28;20190;-67
2021/05/31 03:15:29;;;;;;;14.77;13.20;;;9.50;1.00;;;;;;5103142;28;20454;-67
2021/05/31 03:17:56;;;;;;;13.30;11.90;;;9.60;1.00;;;;;;5112733;28;20429;-68
2021/05/31 03:20:24;;;;;;;13.27;11.30;;;9.60;1.00;;;;;;5112142;28;20459;-67
2021/05/31 03:22:50;;;;;;;16.07;13.00;;;9.60;1.00;;;;;;5094490;28;20489;-67
2021/05/31 03:25:17;;;;;;;12.33;11.03;;;9.60;1.00;;;;;;5091933;28;20528;-69
2021/05/31 03:27:43;;;;;;;11.83;10.23;;;9.70;1.00;;;;;;5111997;28;20448;-67
2021/05/31 03:30:10;;;;;;;10.13;8.63;;;11.10;1.00;;;;;;5092015;28;21178;-68
2021/05/31 03:32:37;;;;;;;8.77;7.97;;;9.90;1.00;;;;;;5091786;28;20177;-67
2021/05/31 03:35:04;;;;;;;7.80;7.10;;;10.20;1.00;;;;;;5103321;28;20533;-67
2021/05/31 03:37:30;;;;;;;6.80;5.90;;;10.30;1.00;;;;;;5108286;28;20474;-67
2021/05/31 03:39:56;;;;;;;6.60;5.57;;;10.50;1.00;;;;;;5107507;28;20491;-67
2021/05/31 03:42:21;;;;;;;7.93;5.57;;;10.60;1.00;;;;;;5093449;28;20443;-68
2021/05/31 03:44:47;;;;;;;7.00;6.30;;;10.70;1.00;;;;;;5109365;28;20557;-68
2021/05/31 03:47:12;;;;;;;9.53;5.83;;;10.90;1.00;;;;;;5092640;28;20230;-68
2021/05/31 03:49:38;;;;;;;7.80;6.30;;;11.00;1.00;;;;;;5112054;28;20181;-67
2021/05/31 03:52:04;;;;;;;6.33;5.80;;;10.80;1.00;;;;;;5092246;28;20279;-67
2021/05/31 03:54:30;;;;;;;7.93;7.20;;;10.70;1.00;;;;;;5109149;28;20194;-66
2021/05/31 03:56:55;;;;;;;10.30;7.30;;;10.70;1.00;;;;;;5097861;28;20445;-67
2021/05/31 03:59:23;;;;;;;7.60;6.93;;;10.60;1.00;;;;;;5110430;28;20324;-68
2021/05/31 04:01:49;;;;;;;7.53;6.70;;;10.40;1.00;;;;;;5104539;28;20190;-68
2021/05/31 04:04:14;;;;;;;7.30;5.60;;;10.30;1.00;;;;;;5100654;28;21034;-69
2021/05/31 04:11:57;;;;;;;9.00;6.40;;;;;;;;;;5108033;28;20514;-63
2021/05/31 04:14:22;;;;;;;7.63;6.50;;;10.10;1.00;;;;;;5111868;28;20812;-63
2021/05/31 04:16:51;;;;;;;7.50;6.47;;;10.30;1.00;;;;;;5104947;28;20456;-63
2021/05/31 04:19:20;;;;;;;8.27;7.47;;;10.30;1.00;;;;;;5106042;28;20173;-63
2021/05/31 04:21:49;;;;;;;7.60;6.90;;;10.40;1.00;;;;;;5103504;28;20451;-63
2021/05/31 04:24:15;;;;;;;7.63;6.53;;;10.30;1.00;;;;;;5111602;28;20523;-64
2021/05/31 04:26:42;;;;;;;7.03;6.43;;;10.40;1.00;;;;;;5111163;28;20907;-63
2021/05/31 04:29:10;;;;;;;7.50;6.80;;;10.40;1.00;;;;;;5106730;28;20445;-63
2021/05/31 04:31:36;;;;;;;6.70;6.10;;;10.50;1.00;;;;;;5110968;28;20503;-63
2021/05/31 04:34:03;;;;;;;7.53;6.67;;;10.50;1.00;;;;;;5089741;28;20816;-64
2021/05/31 04:36:30;;;;;;;7.30;6.63;;;10.60;1.00;;;;;;5108784;28;20427;-63
2021/05/31 04:38:55;;;;;;;7.13;6.43;;;10.70;1.00;;;;;;5110926;28;20864;-63
2021/05/31 04:41:21;;;;;;;8.10;6.97;;;10.70;1.00;;;;;;5109482;28;20472;-63
2021/05/31 04:43:47;;;;;;;7.33;6.03;;;10.60;1.00;;;;;;5108031;28;20190;-69
2021/05/31 04:46:12;;;;;;;6.50;5.90;;;10.70;1.00;;;;;;5110333;28;20615;-70
2021/05/31 04:48:38;;;;;;;7.00;6.30;;;10.90;1.00;;;;;;5096411;28;20250;-68
2021/05/31 04:51:04;;;;;;;7.40;6.30;;;11.00;1.00;;;;;;5110713;28;20267;-71
2021/05/31 04:53:31;;;;;;;6.63;6.03;;;11.10;1.00;;;;;;5104236;28;20198;-69
2021/05/31 04:55:59;;;;;;;7.90;6.83;;;11.20;1.00;;;;;;5105841;28;20630;-69
2021/05/31 04:58:25;;;;;;;7.40;6.00;;;11.20;1.00;;;;;;5104415;28;20507;-70
2021/05/31 05:00:52;;;;;;;7.23;6.00;;;11.10;1.00;;;;;;5100274;28;20476;-69
2021/05/31 05:03:18;;;;;;;7.77;7.00;;;11.20;1.00;;;;;;5103058;28;20192;-70
2021/05/31 05:05:44;;;;;;;8.43;7.50;;;11.30;1.00;;;;;;5105645;28;20443;-70
2021/05/31 05:08:10;;;;;;;7.47;6.77;;;11.40;1.00;;;;;;5109507;28;20438;-69
2021/05/31 05:10:35;;;;;;;7.93;6.90;;;11.50;1.00;;;;;;5095601;28;21056;-69
2021/05/31 05:13:01;;;;;;;7.43;6.63;;;11.50;1.00;;;;;;5095506;28;20196;-71
2021/05/31 05:15:27;;;;;;;9.00;8.20;;;11.60;1.00;;;;;;5109035;28;20196;-71
2021/05/31 05:17:54;;;;;;;8.27;6.83;;;11.80;1.00;;;;;;5111382;28;20188;-71
2021/05/31 05:20:22;;;;;;;6.90;6.27;;;11.80;1.00;;;;;;5110397;28;20510;-70
2021/05/31 05:22:48;;;;;;;7.77;7.07;;;11.90;1.00;;;;;;5093155;28;20439;-67
2021/05/31 05:25:14;;;;;;;8.50;6.33;;;12.00;1.00;;;;;;5086372;28;20837;-69
2021/05/31 05:27:43;;;;;;;6.73;6.03;;;11.90;1.00;;;;;;5110527;28;20567;-68
2021/05/31 05:30:10;;;;;;;6.63;5.87;;;11.90;1.00;;;;;;5109342;28;20443;-66
2021/05/31 05:32:36;;;;;;;6.50;5.90;;;12.10;1.00;;;;;;5107971;28;20442;-67
2021/05/31 05:35:15;;;;;;;8.20;7.00;;;12.20;1.00;;;;;;5109844;28;20446;-68
2021/05/31 05:37:54;;;;;;;7.63;6.90;;;12.30;1.00;;;;;;5110356;28;20471;-67
2021/05/31 05:43:25;;;;;;;7.03;6.03;;;12.50;1.00;;;;;;5110471;28;20828;-67
2021/05/31 05:48:35;;;;;;;10.50;7.30;;;12.70;1.00;;;;;;5111118;28;20920;-68
2021/05/31 05:51:08;;;;;;;8.47;7.43;;;12.80;1.00;;;;;;5095599;28;20447;-69
2021/05/31 05:53:44;;;;;;;7.37;6.67;;;12.90;1.00;;;;;;5114243;28;20185;-67
2021/05/31 05:56:12;;;;;;;7.53;6.90;;;13.00;1.00;;;;;;5113972;28;21019;-68
2021/05/31 05:58:39;;;;;;;11.33;7.57;;;13.30;1.00;;;;;;5103067;28;20505;-67
2021/05/31 06:01:06;;;;;;;6.93;6.33;;;13.40;1.00;;;;;;5109712;28;20498;-68
2021/05/31 06:03:32;;;;;;;10.60;7.50;;;13.40;1.00;;;;;;5091550;28;20493;-70
2021/05/31 06:06:00;;;;;;;7.40;6.70;;;13.50;1.00;;;;;;5096027;28;20820;-70
2021/05/31 06:08:25;;;;;;;7.60;6.80;;;13.60;1.00;;;;;;5106703;28;20185;-69
2021/05/31 06:10:51;;;;;;;9.37;7.40;;;13.50;1.00;;;;;;5108061;28;20448;-69
2021/05/31 06:13:17;;;;;;;7.60;6.90;;;13.50;1.00;;;;;;5113452;28;20193;-70
2021/05/31 06:15:42;;;;;;;9.30;7.70;;;13.50;1.00;;;;;;5113309;28;20185;-68
2021/05/31 06:18:08;;;;;;;9.47;8.07;;;13.60;1.00;;;;;;5113499;28;20181;-70
2021/05/31 06:20:35;;;;;;;7.27;6.67;;;13.90;1.00;;;;;;5112670;28;20298;-69
2021/05/31 06:23:03;;;;;;;7.80;7.10;;;14.10;1.00;;;;;;5090108;28;20194;-69
2021/05/31 06:25:28;;;;;;;8.83;7.00;;;14.20;1.00;;;;;;5106826;28;20500;-72
2021/05/31 06:27:54;;;;;;;7.33;6.00;;;14.40;1.00;;;;;;5106183;28;20528;-70
2021/05/31 06:30:20;;;;;;;7.60;7.00;;;14.50;1.00;;;;;;5112495;28;20197;-70
2021/05/31 06:32:46;;;;;;;6.80;6.20;;;14.80;1.00;;;;;;5107965;28;20243;-71
2021/05/31 06:35:12;;;;;;;9.57;6.60;;;14.70;1.00;;;;;;5113850;28;20496;-71
2021/05/31 06:37:38;;;;;;;8.67;6.57;;;14.70;1.00;;;;;;5095994;28;20471;-67
2021/05/31 06:40:10;;;;;;;8.00;7.20;;;14.70;1.00;;;;;;5112425;28;20227;-68
2021/05/31 06:42:37;;;;;;;7.70;6.90;;;14.80;1.00;;;;;;5112995;28;20562;-68
2021/05/31 06:45:05;;;;;;;7.80;7.10;;;14.80;1.00;;;;;;5113746;28;20531;-67
2021/05/31 06:47:30;;;;;;;6.73;6.10;;;14.80;1.00;;;;;;5111941;28;20452;-69
2021/05/31 06:49:56;;;;;;;7.67;6.37;;;15.00;1.00;;;;;;5105915;28;20451;-70
2021/05/31 06:52:22;;;;;;;6.73;6.13;;;15.20;1.00;;;;;;5093733;28;20178;-68
2021/05/31 06:54:48;;;;;;;10.70;6.73;;;18.40;1.00;;;;;;5111154;28;20911;-69
2021/05/31 06:57:14;;;;;;;7.50;6.90;;;15.60;1.00;;;;;;5097852;28;20179;-71
2021/05/31 06:59:39;;;;;;;7.73;7.00;;;15.90;1.00;;;;;;5112737;28;20206;-70
2021/05/31 07:02:05;;;;;;;6.50;5.90;;;16.20;1.00;;;;;;5109657;28;20308;-70
2021/05/31 07:04:30;;;;;;;7.30;6.67;;;16.30;1.00;;;;;;5100676;28;20252;-68
2021/05/31 07:06:56;;;;;;;10.53;6.90;;;16.30;1.00;;;;;;5113302;28;20243;-67
2021/05/31 07:09:21;;;;;;;6.43;5.93;;;16.30;1.00;;;;;;5102798;28;20233;-66
2021/05/31 07:11:47;;;;;;;5.70;5.30;;;16.40;1.00;;;;;;5101556;28;20182;-70
2021/05/31 07:14:18;;;;;;;7.10;6.50;;;16.70;1.00;;;;;;5112558;28;20190;-65
2021/05/31 07:16:44;;;;;;;6.00;5.50;;;16.70;1.00;;;;;;5112489;28;20444;-69
2021/05/31 07:19:11;;;;;;;6.10;5.60;;;19.50;1.00;;;;;;5112629;28;20432;-68
2021/05/31 07:21:39;;;;;;;5.53;5.00;;;18.40;1.00;;;;;;5111703;28;20960;-70
2021/05/31 07:24:09;;;;;;;4.67;4.27;;;17.70;1.00;;;;;;5110505;28;20454;-67
2021/05/31 07:26:36;;;;;;;4.53;4.13;;;17.90;1.00;;;;;;5111579;28;20451;-67
2021/05/31 07:29:02;;;;;;;6.33;4.57;;;17.80;1.00;;;;;;5111396;28;20527;-67
2021/05/31 07:31:28;;;;;;;5.33;4.83;;;17.90;1.00;;;;;;5111414;27;20485;-68
2021/05/31 07:33:54;;;;;;;4.53;4.00;;;17.90;1.00;;;;;;5112549;28;20440;-69
2021/05/31 07:36:19;;;;;;;5.53;4.57;;;18.10;1.00;;;;;;5106888;28;20229;-68
2021/05/31 07:38:45;;;;;;;5.93;5.33;;;18.10;1.00;;;;;;5093068;28;20194;-70
2021/05/31 07:41:10;;;;;;;4.90;4.47;;;17.80;1.00;;;;;;5107276;28;20609;-68
2021/05/31 07:43:36;;;;;;;5.83;5.23;;;18.00;1.00;;;;;;5112058;28;20943;-67
2021/05/31 07:46:03;;;;;;;5.60;4.83;;;17.80;1.00;;;;;;5111785;28;20186;-69
2021/05/31 07:48:29;;;;;;;5.53;4.30;;;18.20;1.00;;;;;;5112894;28;20563;-69
2021/05/31 07:51:13;;;;;;;4.77;4.17;;;18.20;1.00;;;;;;5092038;28;20432;-67
2021/05/31 07:53:39;;;;;;;5.03;3.80;;;18.20;1.00;;;;;;5096688;28;20287;-68
2021/05/31 07:56:04;;;;;;;5.10;4.60;;;18.20;1.00;;;;;;5107588;28;20908;-69
2021/05/31 07:58:30;;;;;;;6.73;5.40;;;18.00;1.00;;;;;;5107046;28;20648;-68
2021/05/31 08:00:56;;;;;;;4.77;4.37;;;18.20;1.00;;;;;;5103785;28;20229;-68
2021/05/31 08:03:21;;;;;;;4.10;3.70;;;18.30;1.00;;;;;;5112114;28;20171;-69
2021/05/31 08:05:48;;;;;;;4.97;4.57;;;18.60;1.00;;;;;;5112575;28;20181;-68
2021/05/31 08:08:13;;;;;;;4.03;3.73;;;19.10;1.00;;;;;;5105659;28;20582;-68
2021/05/31 08:10:39;;;;;;;3.87;3.57;;;19.40;1.00;;;;;;5105105;28;20515;-68
2021/05/31 08:13:04;;;;;;;4.60;3.90;;;19.50;1.00;;;;;;5101522;28;20255;-68
2021/05/31 08:15:30;;;;;;;5.53;3.60;;;19.70;1.00;;;;;;5112111;28;20185;-68
2021/05/31 08:17:55;;;;;;;4.47;4.07;;;19.60;1.00;;;;;;5096064;28;20286;-69
2021/05/31 08:20:21;;;;;;;5.30;3.80;;;19.90;1.00;;;;;;5100497;28;20682;-67
2021/05/31 08:22:47;;;;;;;3.33;3.03;;;19.90;1.00;;;;;;5109963;28;20243;-69
2021/05/31 08:25:15;;;;;;;3.87;3.40;;;20.80;1.00;;;;;;5099499;28;21313;-67
2021/05/31 08:27:40;;;;;;;3.97;2.77;;;19.70;1.00;;;;;;5096355;28;20459;-68
2021/05/31 08:30:06;;;;;;;4.23;3.17;;;19.70;1.00;;;;;;5092208;28;20918;-68
2021/05/31 08:32:32;;;;;;;4.03;3.10;;;19.80;1.00;;;;;;5096167;28;20182;-68
2021/05/31 08:34:57;;;;;;;2.80;2.60;;;20.00;1.00;;;;;;5104656;28;20441;-68
2021/05/31 08:37:23;;;;;;;7.57;3.50;;;20.40;1.00;;;;;;5083899;28;20248;-67
2021/05/31 08:39:53;;;;;;;7.60;3.37;;;20.50;1.00;;;;;;5106034;28;20197;-68
2021/05/31 08:42:19;;;;;;;3.73;3.30;;;20.50;1.00;;;;;;5110830;28;20178;-68
2021/05/31 08:44:44;;;;;;;7.43;3.63;;;20.30;1.00;;;;;;5111334;28;20862;-67
2021/05/31 08:47:10;;;;;;;4.67;3.20;;;20.10;1.00;;;;;;5112149;28;20189;-69
2021/05/31 08:49:37;;;;;;;3.57;2.83;;;18.90;1.00;;;;;;5103986;28;20714;-66
2021/05/31 08:52:03;;;;;;;3.10;2.87;;;20.40;1.00;;;;;;5111302;28;20440;-68
2021/05/31 08:54:29;;;;;;;3.77;3.17;;;20.60;1.00;;;;;;5099323;28;20515;-69
2021/05/31 08:56:54;;;;;;;2.87;2.57;;;20.80;1.00;;;;;;5111722;28;20447;-68
2021/05/31 08:59:20;;;;;;;3.23;2.83;;;20.90;1.00;;;;;;5099040;28;20188;-67
2021/05/31 09:01:46;;;;;;;7.23;3.40;;;20.80;1.00;;;;;;5111846;28;20176;-67
2021/05/31 09:04:16;;;;;;;3.10;2.53;;;21.10;1.00;;;;;;5111038;28;20170;-68
2021/05/31 09:06:53;;;;;;;4.50;2.40;;;21.50;1.00;;;;;;5094302;28;20504;-66
2021/05/31 09:09:19;;;;;;;3.30;2.80;;;21.80;1.00;;;;;;5110273;28;20463;-68
2021/05/31 09:11:55;;;;;;;4.40;2.70;;;21.20;1.00;;;;;;5110923;28;20913;-67
2021/05/31 09:14:22;;;;;;;3.60;2.60;;;21.20;1.00;;;;;;5109058;28;20402;-69
2021/05/31 09:16:47;;;;;;;4.57;2.90;;;21.80;1.00;;;;;;5111304;28;20490;-67
2021/05/31 09:19:13;;;;;;;2.90;2.50;;;21.80;1.00;;;;;;5111191;28;20522;-67
2021/05/31 09:21:39;;;;;;;4.00;2.73;;;21.40;1.00;;;;;;5103539;28;20198;-69
2021/05/31 09:24:12;;;;;;;3.40;3.10;;;21.60;1.00;;;;;;5112516;28;20170;-68
2021/05/31 09:26:56;;;;;;;4.27;2.60;;;22.00;1.00;;;;;;5108364;28;20489;-68
2021/05/31 09:29:23;;;;;;;2.93;2.60;;;21.70;1.00;;;;;;5114548;28;20464;-69
2021/05/31 09:31:59;;;;;;;3.23;2.93;;;21.60;1.00;;;;;;5115026;28;20876;-68
2021/05/31 09:34:25;;;;;;;3.37;2.93;;;21.60;1.00;;;;;;5109656;28;20900;-69
2021/05/31 09:36:52;;;;;;;3.50;2.90;;;21.80;1.00;;;;;;5092439;28;20474;-67
2021/05/31 09:39:29;;;;;;;3.50;3.17;;;22.10;1.00;;;;;;5094656;28;20260;-69
2021/05/31 09:42:02;;;;;;;4.63;2.53;;;22.40;1.00;;;;;;5108525;28;20410;-68
2021/05/31 09:44:28;;;;;;;6.43;3.20;;;22.80;1.00;;;;;;5100912;28;20440;-69
2021/05/31 09:46:54;;;;;;;3.10;2.80;;;23.00;1.00;;;;;;5099124;28;20841;-68
2021/05/31 09:49:22;;;;;;;3.27;2.90;;;22.80;1.00;;;;;;5111371;28;20451;-69
2021/05/31 09:52:00;;;;;;;4.90;3.40;;;22.30;1.00;;;;;;5106552;28;20829;-69
2021/05/31 09:54:39;;;;;;;4.93;3.73;;;21.60;1.00;;;;;;5100551;28;20436;-67
2021/05/31 09:57:26;;;;;;;4.10;3.60;;;21.00;1.00;;;;;;5108840;28;20452;-67
2021/05/31 10:00:06;;;;;;;3.27;2.77;;;21.20;1.00;;;;;;5112175;28;20467;-68
2021/05/31 10:10:31;;;;;;;4.50;3.13;;;21.00;1.00;;;;;;5111223;28;20420;-67
2021/05/31 10:12:58;;;;;;;4.27;3.27;;;21.10;1.00;;;;;;5076026;28;21094;-68
2021/05/31 10:15:29;;;;;;;3.63;3.10;;;21.60;1.00;;;;;;5094149;28;20778;-68
2021/05/31 10:18:00;;;;;;;3.43;3.13;;;22.00;1.00;;;;;;5094886;28;20436;-68
2021/05/31 10:20:27;;;;;;;3.87;3.20;;;22.30;1.00;;;;;;5096323;28;20438;-70
2021/05/31 10:22:54;;;;;;;4.70;3.40;;;22.70;1.00;;;;;;5110051;28;20428;-68
2021/05/31 10:25:22;;;;;;;3.40;3.10;;;22.00;1.00;;;;;;5093941;28;20425;-68
2021/05/31 10:27:53;;;;;;;3.70;3.40;;;21.90;1.00;;;;;;5113837;28;20519;-67
2021/05/31 10:30:20;;;;;;;4.60;3.53;;;21.90;1.00;;;;;;5112060;28;20421;-67
2021/05/31 10:32:46;;;;;;;4.10;3.07;;;21.70;1.00;;;;;;5113736;28;20583;-68
2021/05/31 10:35:20;;;;;;;4.10;3.37;;;21.50;1.00;;;;;;5113094;28;20443;-68
2021/05/31 10:37:57;;;;;;;3.63;3.33;;;21.90;1.00;;;;;;5114199;28;20778;-70
2021/05/31 10:40:37;;;;;;;3.40;3.10;;;22.40;1.00;;;;;;5113161;28;20959;-68
2021/05/31 10:43:08;;;;;;;3.50;3.20;;;22.50;1.00;;;;;;5082498;28;20445;-67
2021/05/31 10:45:34;;;;;;;4.00;3.60;;;22.50;1.00;;;;;;5076877;28;20994;-68
2021/05/31 10:48:20;;;;;;;4.80;4.40;;;22.90;1.00;;;;;;5113809;28;20443;-69
2021/05/31 10:50:46;;;;;;;4.80;3.53;;;23.30;1.00;;;;;;5080901;28;20428;-67
2021/05/31 10:53:27;;;;;;;3.40;3.10;;;22.80;1.00;;;;;;5113852;28;20451;-67
2021/05/31 10:56:12;;;;;;;3.60;3.30;;;22.30;1.00;;;;;;5113867;28;20455;-67
2021/05/31 10:58:40;;;;;;;3.60;3.30;;;21.90;1.00;;;;;;5108850;28;20936;-68
2021/05/31 11:01:08;;;;;;;3.67;3.37;;;21.80;1.00;;;;;;5101857;28;20463;-68
2021/05/31 11:04:03;;;;;;;4.00;3.60;;;22.10;1.00;;;;;;5103901;28;20465;-69
2021/05/31 11:06:30;;;;;;;3.37;3.07;;;22.30;1.00;;;;;;5112907;28;20829;-69
2021/05/31 11:09:12;;;;;;;3.33;3.03;;;23.00;1.00;;;;;;5111659;28;20537;-68
2021/05/31 11:11:42;;;;;;;4.13;3.83;;;23.70;1.00;;;;;;5108668;27;20447;-68
2021/05/31 11:14:09;;;;;;;4.50;3.40;;;23.50;1.00;;;;;;5110083;28;20435;-68
2021/05/31 11:16:49;;;;;;;4.80;2.83;;;23.00;1.00;;;;;;5107273;28;20944;-68
2021/05/31 11:19:15;;;;;;;3.90;3.07;;;23.00;1.00;;;;;;5103357;28;20769;-69
2021/05/31 11:21:43;;;;;;;3.60;2.93;;;22.90;1.00;;;;;;5111433;28;20463;-69
2021/05/31 11:24:12;;;;;;;4.50;3.20;;;22.80;1.00;;;;;;5109711;28;20227;-68
2021/05/31 11:26:40;;;;;;;3.10;2.90;;;22.50;1.00;;;;;;5107411;28;20432;-67
2021/05/31 11:29:09;;;;;;;3.83;3.53;;;22.50;1.00;;;;;;5089269;28;20504;-68
2021/05/31 11:31:35;;;;;;;4.07;3.67;;;22.50;1.00;;;;;;5110686;28;21177;-69
2021/05/31 11:34:03;;;;;;;4.27;3.00;;;22.70;1.00;;;;;;5103808;28;20436;-68
2021/05/31 11:36:38;;;;;;;3.47;3.17;;;23.00;1.00;;;;;;5074302;28;20419;-69
2021/05/31 11:39:23;;;;;;;6.07;3.13;;;23.40;1.00;;;;;;5111737;28;20418;-68
2021/05/31 11:41:51;;;;;;;3.93;3.10;;;23.00;1.00;;;;;;5085884;28;20464;-68
2021/05/31 11:44:20;;;;;;;3.10;2.80;;;23.40;1.00;;;;;;5107432;28;20495;-70
2021/05/31 11:46:45;;;;;;;4.07;3.20;;;23.10;1.00;;;;;;5085303;28;20932;-70
2021/05/31 11:49:11;;;;;;;4.07;3.10;;;22.70;1.00;;;;;;5110028;28;20427;-69
2021/05/31 11:51:37;;;;;;;5.03;3.33;;;22.40;1.00;;;;;;5094889;28;20540;-68
2021/05/31 11:54:04;;;;;;;3.83;3.10;;;22.50;1.00;;;;;;5110514;28;20186;-69
2021/05/31 11:56:31;;;;;;;5.13;2.90;;;22.70;1.00;;;;;;5097851;28;20445;-70
2021/05/31 11:58:57;;;;;;;4.43;3.10;;;22.70;1.00;;;;;;5111096;28;20447;-70
2021/05/31 12:01:22;;;;;;;4.43;2.90;;;22.60;1.00;;;;;;5109624;28;20467;-70
2021/05/31 12:03:48;;;;;;;3.03;2.73;;;22.50;1.00;;;;;;5085265;28;20178;-71
2021/05/31 12:06:14;;;;;;;3.03;2.73;;;22.70;1.00;;;;;;5095247;28;20179;-71
2021/05/31 12:08:39;;;;;;;3.63;3.33;;;22.60;1.00;;;;;;5097230;28;20218;-70
2021/05/31 12:11:05;;;;;;;2.83;2.63;;;22.70;1.00;;;;;;5088607;28;20192;-70
2021/05/31 12:13:33;;;;;;;3.20;2.87;;;23.00;1.00;;;;;;5112354;28;20600;-69
2021/05/31 12:16:15;;;;;;;3.70;3.10;;;23.20;1.00;;;;;;5109508;28;20179;-68
2021/05/31 12:18:41;;;;;;;3.33;2.90;;;22.90;1.00;;;;;;5090472;28;20457;-69
2021/05/31 12:21:07;;;;;;;3.67;3.13;;;22.80;1.00;;;;;;5111628;28;20460;-69
2021/05/31 12:23:32;;;;;;;3.00;2.70;;;22.80;1.00;;;;;;5083369;28;20662;-69
2021/05/31 12:26:01;;;;;;;5.20;3.37;;;22.70;1.00;;;;;;5110163;28;20558;-71
2021/05/31 12:28:35;;;;;;;3.53;2.70;;;22.50;1.00;;;;;;5088989;28;20182;-70
2021/05/31 12:31:02;;;;;;;8.47;2.87;;;;;;;;;;5106896;28;20430;-71
2021/05/31 12:33:27;;;;;;;3.30;3.00;;;22.30;1.00;;;;;;5110169;28;20451;-70
2021/05/31 12:35:54;;;;;;;4.57;3.00;;;22.50;1.00;;;;;;5085701;28;20534;-69
2021/05/31 12:38:21;;;;;;;2.93;2.73;;;22.90;1.00;;;;;;5089718;28;20291;-68
2021/05/31 12:40:48;;;;;;;2.87;2.67;;;22.80;1.00;;;;;;5091576;28;20479;-70
2021/05/31 12:43:14;;;;;;;3.10;2.90;;;22.90;1.00;;;;;;5077100;28;20412;-71
2021/05/31 12:45:50;;;;;;;4.23;2.90;;;23.10;1.00;;;;;;5072120;28;20451;-69
2021/05/31 12:48:26;;;;;;;3.00;2.70;;;23.20;1.00;;;;;;5090812;28;20193;-70
2021/05/31 12:50:58;;;;;;;3.27;2.97;;;23.10;1.00;;;;;;5088883;28;20444;-70
2021/05/31 12:53:27;;;;;;;3.40;3.10;;;22.90;1.00;;;;;;5090976;28;20573;-71
2021/05/31 12:56:00;;;;;;;4.33;3.00;;;22.70;1.00;;;;;;5088132;28;21097;-69
2021/05/31 12:58:29;;;;;;;5.00;3.00;;;22.50;1.00;;;;;;5087084;28;20451;-71
2021/05/31 13:00:55;;;;;;;4.90;2.93;;;22.50;1.00;;;;;;5091258;28;20976;-70
2021/05/31 13:03:21;;;;;;;3.13;2.93;;;22.40;1.00;;;;;;5083759;28;20436;-70
2021/05/31 13:05:49;;;;;;;3.37;3.07;;;22.70;1.00;;;;;;5091021;28;20185;-70
2021/05/31 13:08:16;;;;;;;2.97;2.67;;;22.80;1.00;;;;;;5090827;28;21001;-71
2021/05/31 13:10:47;;;;;;;3.63;3.30;;;22.50;1.00;;;;;;5079295;28;20778;-70
2021/05/31 13:13:18;;;;;;;3.40;3.10;;;19.30;1.00;;;;;;5089275;28;21072;-70
2021/05/31 13:15:51;;;;;;;2.63;2.43;;;22.10;1.00;;;;;;5090655;28;20449;-70
2021/05/31 13:18:22;;;;;;;3.33;2.80;;;22.30;1.00;;;;;;5090636;28;20447;-71
2021/05/31 13:20:50;;;;;;;6.40;3.20;;;22.60;1.00;;;;;;5088555;28;20997;-70